Portada
METAR-TAF:

METAR-TAF

Aeroports :

Conyac, França

latitud: 45-40N, longitud: 000-19W, altitud: 30 m

Observació

L'informe es va fer fa 14 minuts, a les 12:30 UTC
Vent 13 kt del Sud-Oest, variant entre Sud/Sud-Oest i Oest
Temperatura 24°C
Humitat 74%
Pressió 1014 hPa
Visibilitat 10 km o més
Cel ennuvolat a una alçada de 2500 ft
Cel ennuvolat a una alçada de 3000 ft
Cel cobert a una alçada de 3800 ft

METAR: LFBG 171230Z AUTO 23013KT 210V270 9999 BKN025 BKN030 OVC038 24/19 Q1014

Hora: 14:44 (12:44 UTC)


TAF: manca

Observacions i pronòstics meteorològics de més de 4000 aeroports (METAR i TAF).

Les estacions disponibles són els punts grocs i vermells al mapa.

Posi el ratolí al punt desitjat per veure el nom de l'estació.

Feu clic per veure les observacions i els pronòstics meteorològics.

Per canviar el mapa: feu clic els botons verds amb una creu de color negre per apropar; al botó verd amb un guió per allunyar la imatge; o en les fletxes verdes per a mapes adjacents.


METAR-TAF: